Ashwood, Texas
Current Conditions -  °F | °C
As of 5:55 AM on Wednesday 28 Jan 2015 (Local Time) from KBYY Reporting Station
Clear Clear  
Wind Chill: 47°   Ceiling: Unl
Heat Index: 47°   Visibility: 7mi
Dew Point: 47°   Wind: 0mph
Humidity: 99%   Direction: NA
Pressure: 30.15"   Gusts: NA
Location:  29.0235°N, 95.7113°W
Report Text: KBYY 281155Z AUTO 00000KT 7SM CLR 08/08 A3015 RMK AO2 T00830082
Loading
Personal Weather Stations






























Interactive Weather Map New forecast layout! Learn more

10-Day Weather Forecast

Advertisements
Track Severe Weather on mobile